Rose City, MI (48654)

5:07 AM EDT on September 04, 2015 (GMT -0400)
Rose Township | | Change Station
CLOSE
Current Station
Personal Weather Station
Location: Lupton, MI
Elevation: 922 ft
Nearby Weather Stations

Elev 922 ft 44.43 °N, 84.01 °W | Updated 2 seconds ago

Overcast
Overcast
64.4 °F
Feels Like 64.4 °F
N
0.0
Wind Variable Wind from SW
Gusts 0.0 mph

Today
High -- | Low -- °F
--% Chance of Precip.
Yesterday
High -- | Low -- °F
Precip. -- in
7:02 AM 8:07 PM
Waning Gibbous, 61% visible
Pressure 29.99 in
Visibility 10.0 miles
Clouds Overcast 1600 ft
Dew Point 64 °F
Humidity 99%
Rainfall 0.00 in
Snow Depth Not available.
UV 0 out of 12
Pollen 9.70 out of 12
Air Quality Not available.
Flu Activity Not available.
METAR KHTL 040853Z AUTO 06005KT 10SM OVC016 19/18 A2999 RMK AO2 SLP154 60000 T01890178 53005
Pressure 29.99 in
Visibility 10.0 miles
Clouds Overcast 1600 ft
Dew Point 64 °F
Humidity 99%
Rainfall 0.00 in
Snow Depth Not available.
UV 0 out of 12
Pollen 9.70 out of 12
Air Quality Not available.
Flu Activity Not available.
METAR KHTL 040853Z AUTO 06005KT 10SM OVC016 19/18 A2999 RMK AO2 SLP154 60000 T01890178 53005
Nowcast | as of 5:00 am EDT on September 4, 2015

At 6 am...areas of fog. Numerous showers. Temperature 65. Northeast winds 6 mph. At 8 am...cloudy. Scattered showers. Temperature 64. Northeast winds 6 mph. At 10 am...cloudy. Scattered showers. Temperature 65. East winds 7 mph. At 12 PM...cloudy. Scattered showers. Temperature 69. East winds 7 mph.

×

10-Day Weather Forecast

×

Almanac

Astronomy

Sep. 04, 2015 Rise Set
Actual Time
Civil Twilight
Nautical Twilight
Astronomical Twilight
Moon
Length of Visible Light
Length of Day
Tomorrow will be .
, % of the Moon is Illuminated

Today's Extremes

State Highs State Lows

Community

WunderPhotos

Upload Photos

1,852,142 photos uploaded!

WunderBlogs® & News

Nearby

Air Quality

  Air Quality AQ Index Pollutant
Not available.

Snow Depth

Station Depth Elevation

Earthquake Activity

City Distance Mag. Time & Date
Minimum magnitude displayed is 2.5.

Coastal Water Temperatures

Place Temperature

Stations

Nearby Weather Stations

Station Location Temp. Windchill Dew Point Humidity Wind Precip. Elev Updated Type